PWSweather.com
Personal Weather Stations
Station Observations
KWABLAIN13
Ptl Weather, Blaine, WA

Ptl WeatherBlaine, WA

Lat: 48.997393, Lon: -122.748614

Elevation: 57

Station Type: Davis Advantage Pro 2

http://www.ptlnet.net

Latest ConditionsUpdated 9:30:03 PM PST Saturday, Nov 22, 2014
Currently Today's Max Today's Min Today's Average
Temperature 42.0°F5.6°C 51.4°F10.8°C 40.2°F4.6°C 46.5°F8.1°C
Dew Point 40.7°F4.8°C 45.0°F7.2°C 38.1°F3.4°C 42.5°F5.8°C
Winds 3.0 mph SE4.8 kmh SE 11.0 mph SW17.7 kmh SW - 3.4 mph 5.5 kmh
Wind Gusts 5.0 mph8.0 kmh 13.0 mph20.9 kmh - -
Humidity 95% 95% 76% 86%
Pressure 30.02 in1016.6 mb 30.02 in1016.6 mb 29.43 in996.6 mb -
Hour Temp Dew Point Humidity Winds Wind Gusts Pressure Precip Precip Rate Daily Precip Total
09:30 PM 42.0°F5.6°C 40.7°F4.8°C 95% 3.0 mph SE4.8 kmh SE 5.0 mph8.0 kmh 30.02 in1016.6 mb 0.00 in0.0 mm 0.00 in/hr0.0 mm/hr 0.10 in2.5 mm
09:25 PM 41.8°F5.4°C 40.5°F4.7°C 95% 2.0 mph SE3.2 kmh SE 5.0 mph8.0 kmh 30.02 in1016.6 mb 0.00 in0.0 mm 0.00 in/hr0.0 mm/hr 0.10 in2.5 mm
09:10 PM 40.5°F4.7°C 39.2°F4.0°C 95% 2.0 mph SE3.2 kmh SE 4.0 mph6.4 kmh 30.01 in1016.3 mb 0.00 in0.0 mm 0.00 in/hr0.0 mm/hr 0.10 in2.5 mm
09:05 PM 40.2°F4.6°C 38.6°F3.7°C 94% 3.0 mph SE4.8 kmh SE 4.0 mph6.4 kmh 30.01 in1016.3 mb 0.00 in0.0 mm 0.00 in/hr0.0 mm/hr 0.10 in2.5 mm
08:50 PM 40.2°F4.6°C 38.3°F3.5°C 93% 1.0 mph SE1.6 kmh SE 2.0 mph3.2 kmh 30.01 in1016.3 mb 0.00 in0.0 mm 0.00 in/hr0.0 mm/hr 0.10 in2.5 mm
08:45 PM 40.3°F4.6°C 38.4°F3.6°C 93% 1.0 mph SE1.6 kmh SE 2.0 mph3.2 kmh 30.01 in1016.3 mb 0.00 in0.0 mm 0.00 in/hr0.0 mm/hr 0.10 in2.5 mm
08:30 PM 40.6°F4.8°C 38.5°F3.6°C 92% 2.0 mph SE3.2 kmh SE 2.0 mph3.2 kmh 30.00 in1015.9 mb 0.00 in0.0 mm 0.00 in/hr0.0 mm/hr 0.10 in2.5 mm
08:25 PM 40.8°F4.9°C 38.7°F3.7°C 92% 2.0 mph SE3.2 kmh SE 4.0 mph6.4 kmh 30.00 in1015.9 mb 0.00 in0.0 mm 0.00 in/hr0.0 mm/hr 0.10 in2.5 mm
08:10 PM 41.2°F5.1°C 39.3°F4.1°C 93% 1.0 mph SE1.6 kmh SE 2.0 mph3.2 kmh 30.00 in1015.9 mb 0.00 in0.0 mm 0.00 in/hr0.0 mm/hr 0.10 in2.5 mm
08:05 PM 41.2°F5.1°C 39.3°F4.1°C 93% 1.0 mph SE1.6 kmh SE 2.0 mph3.2 kmh 30.00 in1015.9 mb 0.00 in0.0 mm 0.00 in/hr0.0 mm/hr 0.10 in2.5 mm
07:49 PM 40.5°F4.7°C 38.1°F3.4°C 91% 2.0 mph SE3.2 kmh SE 2.0 mph3.2 kmh 30.00 in1015.9 mb 0.00 in0.0 mm 0.00 in/hr0.0 mm/hr 0.10 in2.5 mm
07:44 PM 40.6°F4.8°C 38.2°F3.4°C 91% 1.0 mph SE1.6 kmh SE 2.0 mph3.2 kmh 29.99 in1015.6 mb 0.00 in0.0 mm 0.00 in/hr0.0 mm/hr 0.10 in2.5 mm
07:30 PM 41.3°F5.2°C 38.3°F3.5°C 89% 2.0 mph SE3.2 kmh SE 2.0 mph3.2 kmh 29.99 in1015.6 mb 0.00 in0.0 mm 0.00 in/hr0.0 mm/hr 0.10 in2.5 mm
07:25 PM 41.5°F5.3°C 38.8°F3.8°C 90% 1.0 mph SE1.6 kmh SE 2.0 mph3.2 kmh 29.98 in1015.2 mb 0.00 in0.0 mm 0.00 in/hr0.0 mm/hr 0.10 in2.5 mm
07:09 PM 42.3°F5.7°C 39.3°F4.1°C 89% 2.0 mph SE3.2 kmh SE 3.0 mph4.8 kmh 29.98 in1015.2 mb 0.00 in0.0 mm 0.00 in/hr0.0 mm/hr 0.10 in2.5 mm
07:05 PM 42.5°F5.8°C 39.5°F4.2°C 89% 2.0 mph SE3.2 kmh SE 3.0 mph4.8 kmh 29.97 in1014.9 mb 0.00 in0.0 mm 0.00 in/hr0.0 mm/hr 0.10 in2.5 mm
06:49 PM 43.3°F6.3°C 39.7°F4.3°C 87% Calm Calm 2.0 mph3.2 kmh 29.97 in1014.9 mb 0.00 in0.0 mm 0.00 in/hr0.0 mm/hr 0.10 in2.5 mm
06:44 PM 43.6°F6.4°C 40.0°F4.4°C 87% 1.0 mph SE1.6 kmh SE 1.0 mph1.6 kmh 29.97 in1014.9 mb 0.00 in0.0 mm 0.00 in/hr0.0 mm/hr 0.10 in2.5 mm
06:29 PM 44.4°F6.9°C 40.8°F4.9°C 87% 1.0 mph SE1.6 kmh SE 3.0 mph4.8 kmh 29.96 in1014.6 mb 0.00 in0.0 mm 0.00 in/hr0.0 mm/hr 0.10 in2.5 mm
06:25 PM 44.6°F7.0°C 41.0°F5.0°C 87% 2.0 mph SE3.2 kmh SE 3.0 mph4.8 kmh 29.95 in1014.2 mb 0.00 in0.0 mm 0.00 in/hr0.0 mm/hr 0.10 in2.5 mm
06:10 PM 45.1°F7.3°C 41.2°F5.1°C 86% Calm Calm 2.0 mph3.2 kmh 29.95 in1014.2 mb 0.00 in0.0 mm 0.00 in/hr0.0 mm/hr 0.10 in2.5 mm
06:05 PM 45.3°F7.4°C 41.4°F5.2°C 86% 1.0 mph SE1.6 kmh SE 2.0 mph3.2 kmh 29.95 in1014.2 mb 0.00 in0.0 mm 0.00 in/hr0.0 mm/hr 0.10 in2.5 mm
05:50 PM 45.7°F7.6°C 41.5°F5.3°C 85% 1.0 mph SE1.6 kmh SE 2.0 mph3.2 kmh 29.95 in1014.2 mb 0.00 in0.0 mm 0.00 in/hr0.0 mm/hr 0.10 in2.5 mm
05:45 PM 45.8°F7.7°C 41.6°F5.3°C 85% 1.0 mph SE1.6 kmh SE 2.0 mph3.2 kmh 29.94 in1013.9 mb 0.00 in0.0 mm 0.00 in/hr0.0 mm/hr 0.10 in2.5 mm
05:30 PM 46.1°F7.8°C 41.9°F5.5°C 85% 1.0 mph SE1.6 kmh SE 2.0 mph3.2 kmh 29.94 in1013.9 mb 0.00 in0.0 mm 0.00 in/hr0.0 mm/hr 0.10 in2.5 mm
05:25 PM 46.1°F7.8°C 41.9°F5.5°C 85% 1.0 mph SE1.6 kmh SE 2.0 mph3.2 kmh 29.94 in1013.9 mb 0.00 in0.0 mm 0.00 in/hr0.0 mm/hr 0.10 in2.5 mm
05:09 PM 46.5°F8.1°C 41.9°F5.5°C 84% 1.0 mph SW1.6 kmh SW 2.0 mph3.2 kmh 29.93 in1013.5 mb 0.00 in0.0 mm 0.00 in/hr0.0 mm/hr 0.10 in2.5 mm
05:04 PM 46.7°F8.2°C 42.1°F5.6°C 84% 1.0 mph SW1.6 kmh SW 2.0 mph3.2 kmh 29.93 in1013.5 mb 0.00 in0.0 mm 0.00 in/hr0.0 mm/hr 0.10 in2.5 mm
04:50 PM 47.4°F8.6°C 42.2°F5.7°C 82% 1.0 mph SW1.6 kmh SW 3.0 mph4.8 kmh 29.92 in1013.2 mb 0.00 in0.0 mm 0.00 in/hr0.0 mm/hr 0.10 in2.5 mm
04:45 PM 47.6°F8.7°C 42.1°F5.6°C 81% 1.0 mph SW1.6 kmh SW 2.0 mph3.2 kmh 29.92 in1013.2 mb 0.00 in0.0 mm 0.00 in/hr0.0 mm/hr 0.10 in2.5 mm
04:29 PM 48.0°F8.9°C 42.8°F6.0°C 82% 1.0 mph SW1.6 kmh SW 3.0 mph4.8 kmh 29.91 in1012.9 mb 0.00 in0.0 mm 0.00 in/hr0.0 mm/hr 0.10 in2.5 mm
04:24 PM 48.1°F8.9°C 42.9°F6.1°C 82% 2.0 mph SW3.2 kmh SW 3.0 mph4.8 kmh 29.91 in1012.9 mb 0.00 in0.0 mm 0.00 in/hr0.0 mm/hr 0.10 in2.5 mm
04:09 PM 48.3°F9.1°C 43.4°F6.3°C 83% 1.0 mph SW1.6 kmh SW 4.0 mph6.4 kmh 29.90 in1012.5 mb 0.00 in0.0 mm 0.00 in/hr0.0 mm/hr 0.10 in2.5 mm
04:05 PM 48.3°F9.1°C 43.4°F6.3°C 83% 1.0 mph SW1.6 kmh SW 4.0 mph6.4 kmh 29.90 in1012.5 mb 0.00 in0.0 mm 0.00 in/hr0.0 mm/hr 0.10 in2.5 mm
03:50 PM 48.4°F9.1°C 43.2°F6.2°C 82% 3.0 mph SW4.8 kmh SW 8.0 mph12.9 kmh 29.89 in1012.2 mb 0.00 in0.0 mm 0.00 in/hr0.0 mm/hr 0.10 in2.5 mm
03:45 PM 48.5°F9.2°C 43.3°F6.3°C 82% 2.0 mph WSW3.2 kmh WSW 8.0 mph12.9 kmh 29.89 in1012.2 mb 0.00 in0.0 mm 0.00 in/hr0.0 mm/hr 0.10 in2.5 mm
03:30 PM 48.7°F9.3°C 43.1°F6.2°C 81% 5.0 mph SW8.0 kmh SW 9.0 mph14.5 kmh 29.88 in1011.9 mb 0.00 in0.0 mm 0.00 in/hr0.0 mm/hr 0.10 in2.5 mm
03:25 PM 48.8°F9.3°C 43.2°F6.2°C 81% 5.0 mph WSW8.0 kmh WSW 9.0 mph14.5 kmh 29.87 in1011.5 mb 0.00 in0.0 mm 0.00 in/hr0.0 mm/hr 0.10 in2.5 mm
03:10 PM 49.5°F9.7°C 42.9°F6.1°C 78% 8.0 mph SW12.9 kmh SW 11.0 mph17.7 kmh 29.86 in1011.2 mb 0.00 in0.0 mm 0.00 in/hr0.0 mm/hr 0.10 in2.5 mm
03:05 PM 49.8°F9.9°C 43.6°F6.4°C 79% 5.0 mph SW8.0 kmh SW 8.0 mph12.9 kmh 29.86 in1011.2 mb 0.00 in0.0 mm 0.00 in/hr0.0 mm/hr 0.10 in2.5 mm
02:50 PM 50.1°F10.1°C 42.8°F6.0°C 76% 4.0 mph SW6.4 kmh SW 9.0 mph14.5 kmh 29.85 in1010.8 mb 0.00 in0.0 mm 0.00 in/hr0.0 mm/hr 0.10 in2.5 mm
02:45 PM 50.2°F10.1°C 42.9°F6.1°C 76% 7.0 mph W11.3 kmh W 8.0 mph12.9 kmh 29.85 in1010.8 mb 0.00 in0.0 mm 0.00 in/hr0.0 mm/hr 0.10 in2.5 mm
02:30 PM 50.1°F10.1°C 43.5°F6.4°C 78% 7.0 mph SW11.3 kmh SW 8.0 mph12.9 kmh 29.84 in1010.5 mb 0.00 in0.0 mm 0.00 in/hr0.0 mm/hr 0.10 in2.5 mm
02:25 PM 50.1°F10.1°C 44.2°F6.8°C 80% 5.0 mph NW8.0 kmh NW 8.0 mph12.9 kmh 29.84 in1010.5 mb 0.00 in0.0 mm 0.00 in/hr0.0 mm/hr 0.10 in2.5 mm
02:10 PM 50.4°F10.2°C 44.5°F6.9°C 80% 6.0 mph W9.7 kmh W 6.0 mph9.7 kmh 29.83 in1010.2 mb 0.00 in0.0 mm 0.00 in/hr0.0 mm/hr 0.10 in2.5 mm
02:05 PM 50.5°F10.3°C 44.6°F7.0°C 80% 3.0 mph SW4.8 kmh SW 7.0 mph11.3 kmh 29.83 in1010.2 mb 0.00 in0.0 mm 0.00 in/hr0.0 mm/hr 0.10 in2.5 mm
01:49 PM 50.6°F10.3°C 44.0°F6.7°C 78% 6.0 mph SW9.7 kmh SW 8.0 mph12.9 kmh 29.83 in1010.2 mb 0.00 in0.0 mm 0.00 in/hr0.0 mm/hr 0.10 in2.5 mm
01:45 PM 50.6°F10.3°C 44.0°F6.7°C 78% 3.0 mph WSW4.8 kmh WSW 8.0 mph12.9 kmh 29.83 in1010.2 mb 0.00 in0.0 mm 0.00 in/hr0.0 mm/hr 0.10 in2.5 mm
01:30 PM 50.5°F10.3°C 43.9°F6.6°C 78% 4.0 mph SW6.4 kmh SW 8.0 mph12.9 kmh 29.82 in1009.8 mb 0.00 in0.0 mm 0.00 in/hr0.0 mm/hr 0.10 in2.5 mm
01:25 PM 50.5°F10.3°C 43.9°F6.6°C 78% 2.0 mph WNW3.2 kmh WNW 8.0 mph12.9 kmh 29.81 in1009.5 mb 0.00 in0.0 mm 0.00 in/hr0.0 mm/hr 0.10 in2.5 mm
01:10 PM 50.6°F10.3°C 44.0°F6.7°C 78% 3.0 mph WSW4.8 kmh WSW 4.0 mph6.4 kmh 29.81 in1009.5 mb 0.00 in0.0 mm 0.00 in/hr0.0 mm/hr 0.10 in2.5 mm
01:05 PM 50.7°F10.4°C 44.4°F6.9°C 79% 2.0 mph WSW3.2 kmh WSW 8.0 mph12.9 kmh 29.80 in1009.1 mb 0.00 in0.0 mm 0.00 in/hr0.0 mm/hr 0.10 in2.5 mm
12:50 PM 51.4°F10.8°C 44.4°F6.9°C 77% 3.0 mph W4.8 kmh W 7.0 mph11.3 kmh 29.80 in1009.1 mb 0.00 in0.0 mm 0.00 in/hr0.0 mm/hr 0.10 in2.5 mm
12:45 PM 51.2°F10.7°C 44.6°F7.0°C 78% 4.0 mph SW6.4 kmh SW 7.0 mph11.3 kmh 29.80 in1009.1 mb 0.00 in0.0 mm 0.00 in/hr0.0 mm/hr 0.10 in2.5 mm
12:30 PM 51.0°F10.6°C 44.4°F6.9°C 78% 4.0 mph WSW6.4 kmh WSW 9.0 mph14.5 kmh 29.79 in1008.8 mb 0.00 in0.0 mm 0.00 in/hr0.0 mm/hr 0.10 in2.5 mm
12:25 PM 50.9°F10.5°C 44.0°F6.7°C 77% 8.0 mph SW12.9 kmh SW 9.0 mph14.5 kmh 29.78 in1008.5 mb 0.00 in0.0 mm 0.00 in/hr0.0 mm/hr 0.10 in2.5 mm
12:09 PM 50.9°F10.5°C 43.6°F6.4°C 76% 5.0 mph SW8.0 kmh SW 8.0 mph12.9 kmh 29.77 in1008.1 mb 0.00 in0.0 mm 0.00 in/hr0.0 mm/hr 0.10 in2.5 mm
12:05 PM 51.0°F10.6°C 43.7°F6.5°C 76% 4.0 mph SW6.4 kmh SW 8.0 mph12.9 kmh 29.77 in1008.1 mb 0.00 in0.0 mm 0.00 in/hr0.0 mm/hr 0.10 in2.5 mm
11:50 AM 50.9°F10.5°C 45.0°F7.2°C 80% 3.0 mph SW4.8 kmh SW 10.0 mph16.1 kmh 29.76 in1007.8 mb 0.00 in0.0 mm 0.00 in/hr0.0 mm/hr 0.10 in2.5 mm
11:44 AM 50.7°F10.4°C 44.8°F7.1°C 80% 2.0 mph S3.2 kmh S 9.0 mph14.5 kmh 29.76 in1007.8 mb 0.00 in0.0 mm 0.00 in/hr0.0 mm/hr 0.10 in2.5 mm
11:30 AM 50.2°F10.1°C 44.9°F7.2°C 82% 8.0 mph SW12.9 kmh SW 10.0 mph16.1 kmh 29.75 in1007.5 mb 0.00 in0.0 mm 0.00 in/hr0.0 mm/hr 0.10 in2.5 mm
11:25 AM 50.1°F10.1°C 44.8°F7.1°C 82% 5.0 mph SW8.0 kmh SW 8.0 mph12.9 kmh 29.75 in1007.5 mb 0.00 in0.0 mm 0.00 in/hr0.0 mm/hr 0.10 in2.5 mm
11:10 AM 50.0°F10.0°C 44.7°F7.1°C 82% 4.0 mph SSW6.4 kmh SSW 11.0 mph17.7 kmh 29.75 in1007.5 mb 0.00 in0.0 mm 0.00 in/hr0.0 mm/hr 0.10 in2.5 mm
11:05 AM 49.5°F9.7°C 44.6°F7.0°C 83% 8.0 mph SW12.9 kmh SW 11.0 mph17.7 kmh 29.75 in1007.5 mb 0.00 in0.0 mm 0.00 in/hr0.0 mm/hr 0.10 in2.5 mm
10:50 AM 48.3°F9.1°C 43.7°F6.5°C 84% 5.0 mph S8.0 kmh S 10.0 mph16.1 kmh 29.73 in1006.8 mb 0.00 in0.0 mm 0.00 in/hr0.0 mm/hr 0.10 in2.5 mm
10:45 AM 48.1°F8.9°C 43.8°F6.6°C 85% 7.0 mph SSW11.3 kmh SSW 9.0 mph14.5 kmh 29.74 in1007.1 mb 0.00 in0.0 mm 0.00 in/hr0.0 mm/hr 0.10 in2.5 mm
10:30 AM 47.8°F8.8°C 43.8°F6.6°C 86% 2.0 mph S3.2 kmh S 5.0 mph8.0 kmh 29.73 in1006.8 mb 0.00 in0.0 mm 0.00 in/hr0.0 mm/hr 0.10 in2.5 mm
10:25 AM 47.6°F8.7°C 43.9°F6.6°C 87% 2.0 mph SSW3.2 kmh SSW 5.0 mph8.0 kmh 29.73 in1006.8 mb 0.00 in0.0 mm 0.00 in/hr0.0 mm/hr 0.10 in2.5 mm
10:09 AM 47.2°F8.4°C 43.5°F6.4°C 87% 3.0 mph SW4.8 kmh SW 7.0 mph11.3 kmh 29.72 in1006.4 mb 0.00 in0.0 mm 0.00 in/hr0.0 mm/hr 0.10 in2.5 mm
10:05 AM 47.0°F8.3°C 43.3°F6.3°C 87% 5.0 mph S8.0 kmh S 7.0 mph11.3 kmh 29.72 in1006.4 mb 0.00 in0.0 mm 0.00 in/hr0.0 mm/hr 0.10 in2.5 mm
09:50 AM 47.0°F8.3°C 43.3°F6.3°C 87% 4.0 mph SW6.4 kmh SW 7.0 mph11.3 kmh 29.71 in1006.1 mb 0.00 in0.0 mm 0.00 in/hr0.0 mm/hr 0.10 in2.5 mm
09:45 AM 47.0°F8.3°C 43.3°F6.3°C 87% 6.0 mph S9.7 kmh S 7.0 mph11.3 kmh 29.70 in1005.8 mb 0.00 in0.0 mm 0.00 in/hr0.0 mm/hr 0.10 in2.5 mm
09:29 AM 46.7°F8.2°C 43.3°F6.3°C 88% 5.0 mph S8.0 kmh S 11.0 mph17.7 kmh 29.70 in1005.8 mb 0.00 in0.0 mm 0.00 in/hr0.0 mm/hr 0.10 in2.5 mm
09:25 AM 46.5°F8.1°C 43.1°F6.2°C 88% 5.0 mph SW8.0 kmh SW 11.0 mph17.7 kmh 29.70 in1005.8 mb 0.00 in0.0 mm 0.00 in/hr0.0 mm/hr 0.10 in2.5 mm
09:10 AM 45.4°F7.4°C 43.2°F6.2°C 92% 4.0 mph S6.4 kmh S 6.0 mph9.7 kmh 29.69 in1005.4 mb 0.00 in0.0 mm 0.00 in/hr0.0 mm/hr 0.10 in2.5 mm
09:05 AM 44.9°F7.2°C 42.7°F5.9°C 92% 5.0 mph SW8.0 kmh SW 6.0 mph9.7 kmh 29.69 in1005.4 mb 0.00 in0.0 mm 0.00 in/hr0.0 mm/hr 0.10 in2.5 mm
08:50 AM 43.9°F6.6°C 41.7°F5.4°C 92% 4.0 mph SSE6.4 kmh SSE 4.0 mph6.4 kmh 29.68 in1005.1 mb 0.00 in0.0 mm 0.00 in/hr0.0 mm/hr 0.10 in2.5 mm
08:45 AM 43.7°F6.5°C 41.5°F5.3°C 92% 1.0 mph SSE1.6 kmh SSE 4.0 mph6.4 kmh 29.68 in1005.1 mb 0.00 in0.0 mm 0.00 in/hr0.0 mm/hr 0.10 in2.5 mm
08:29 AM 43.5°F6.4°C 41.1°F5.1°C 91% 2.0 mph SSE3.2 kmh SSE 3.0 mph4.8 kmh 29.67 in1004.7 mb 0.00 in0.0 mm 0.00 in/hr0.0 mm/hr 0.10 in2.5 mm
08:25 AM 43.5°F6.4°C 41.1°F5.1°C 91% 2.0 mph SSE3.2 kmh SSE 3.0 mph4.8 kmh 29.66 in1004.4 mb 0.00 in0.0 mm 0.00 in/hr0.0 mm/hr 0.10 in2.5 mm
08:10 AM 43.9°F6.6°C 41.2°F5.1°C 90% 3.0 mph SE4.8 kmh SE 4.0 mph6.4 kmh 29.66 in1004.4 mb 0.00 in0.0 mm 0.00 in/hr0.0 mm/hr 0.10 in2.5 mm
08:05 AM 44.1°F6.7°C 41.4°F5.2°C 90% 3.0 mph SE4.8 kmh SE 4.0 mph6.4 kmh 29.65 in1004.1 mb 0.00 in0.0 mm 0.00 in/hr0.0 mm/hr 0.10 in2.5 mm
07:50 AM 44.6°F7.0°C 41.6°F5.3°C 89% 3.0 mph SE4.8 kmh SE 4.0 mph6.4 kmh 29.65 in1004.1 mb 0.00 in0.0 mm 0.00 in/hr0.0 mm/hr 0.10 in2.5 mm
07:44 AM 44.7°F7.1°C 41.4°F5.2°C 88% 2.0 mph SE3.2 kmh SE 4.0 mph6.4 kmh 29.65 in1004.1 mb 0.00 in0.0 mm 0.00 in/hr0.0 mm/hr 0.10 in2.5 mm
07:29 AM 45.0°F7.2°C 42.0°F5.6°C 89% 3.0 mph SE4.8 kmh SE 4.0 mph6.4 kmh 29.64 in1003.7 mb 0.00 in0.0 mm 0.00 in/hr0.0 mm/hr 0.10 in2.5 mm
07:25 AM 45.1°F7.3°C 41.8°F5.4°C 88% 1.0 mph SSE1.6 kmh SSE 3.0 mph4.8 kmh 29.64 in1003.7 mb 0.00 in0.0 mm 0.00 in/hr0.0 mm/hr 0.10 in2.5 mm
07:09 AM 45.4°F7.4°C 42.1°F5.6°C 88% 2.0 mph SSE3.2 kmh SSE 4.0 mph6.4 kmh 29.64 in1003.7 mb 0.00 in0.0 mm 0.00 in/hr0.0 mm/hr 0.10 in2.5 mm
07:05 AM 45.6°F7.6°C 42.3°F5.7°C 88% 2.0 mph SE3.2 kmh SE 4.0 mph6.4 kmh 29.64 in1003.7 mb 0.00 in0.0 mm 0.00 in/hr0.0 mm/hr 0.10 in2.5 mm
06:49 AM 46.1°F7.8°C 42.8°F6.0°C 88% 1.0 mph SE1.6 kmh SE 6.0 mph9.7 kmh 29.63 in1003.4 mb 0.00 in0.0 mm 0.00 in/hr0.0 mm/hr 0.10 in2.5 mm
06:44 AM 46.3°F7.9°C 42.7°F5.9°C 87% 1.0 mph S1.6 kmh S 6.0 mph9.7 kmh 29.63 in1003.4 mb 0.00 in0.0 mm 0.00 in/hr0.0 mm/hr 0.10 in2.5 mm
06:29 AM 46.6°F8.1°C 42.9°F6.1°C 87% 3.0 mph SSW4.8 kmh SSW 9.0 mph14.5 kmh 29.63 in1003.4 mb 0.00 in0.0 mm 0.00 in/hr0.0 mm/hr 0.10 in2.5 mm
06:25 AM 46.6°F8.1°C 43.2°F6.2°C 88% 4.0 mph SW6.4 kmh SW 9.0 mph14.5 kmh 29.63 in1003.4 mb 0.00 in0.0 mm 0.00 in/hr0.0 mm/hr 0.10 in2.5 mm
06:10 AM 46.6°F8.1°C 42.9°F6.1°C 87% 2.0 mph S3.2 kmh S 8.0 mph12.9 kmh 29.62 in1003.0 mb 0.00 in0.0 mm 0.00 in/hr0.0 mm/hr 0.10 in2.5 mm
06:05 AM 46.6°F8.1°C 42.6°F5.9°C 86% 2.0 mph SSW3.2 kmh SSW 8.0 mph12.9 kmh 29.62 in1003.0 mb 0.00 in0.0 mm 0.00 in/hr0.0 mm/hr 0.10 in2.5 mm
05:50 AM 46.6°F8.1°C 42.0°F5.6°C 84% 3.0 mph SW4.8 kmh SW 8.0 mph12.9 kmh 29.61 in1002.7 mb 0.00 in0.0 mm 0.00 in/hr0.0 mm/hr 0.10 in2.5 mm
05:45 AM 46.8°F8.2°C 42.5°F5.8°C 85% 2.0 mph SSW3.2 kmh SSW 8.0 mph12.9 kmh 29.61 in1002.7 mb 0.00 in0.0 mm 0.00 in/hr0.0 mm/hr 0.10 in2.5 mm
05:30 AM 47.1°F8.4°C 42.5°F5.8°C 84% 8.0 mph SSW12.9 kmh SSW 11.0 mph17.7 kmh 29.60 in1002.4 mb 0.00 in0.0 mm 0.00 in/hr0.0 mm/hr 0.10 in2.5 mm
05:25 AM 47.2°F8.4°C 42.3°F5.7°C 83% 8.0 mph SSW12.9 kmh SSW 11.0 mph17.7 kmh 29.61 in1002.7 mb 0.00 in0.0 mm 0.00 in/hr0.0 mm/hr 0.10 in2.5 mm
05:10 AM 47.3°F8.5°C 42.7°F5.9°C 84% 3.0 mph SSW4.8 kmh SSW 4.0 mph6.4 kmh 29.60 in1002.4 mb 0.00 in0.0 mm 0.00 in/hr0.0 mm/hr 0.10 in2.5 mm
05:04 AM 47.3°F8.5°C 42.7°F5.9°C 84% 7.0 mph SSW11.3 kmh SSW 11.0 mph17.7 kmh 29.59 in1002.0 mb 0.01 in0.3 mm 0.00 in/hr0.0 mm/hr 0.10 in2.5 mm
04:50 AM 46.7°F8.2°C 42.1°F5.6°C 84% 11.0 mph SW17.7 kmh SW 11.0 mph17.7 kmh 29.59 in1002.0 mb 0.01 in0.3 mm 0.00 in/hr0.0 mm/hr 0.10 in2.5 mm
04:45 AM 46.4°F8.0°C 42.1°F5.6°C 85% 8.0 mph SSW12.9 kmh SSW 12.0 mph19.3 kmh 29.58 in1001.7 mb 0.01 in0.3 mm 0.00 in/hr0.0 mm/hr 0.10 in2.5 mm
04:30 AM 45.6°F7.6°C 42.0°F5.6°C 87% 8.0 mph SW12.9 kmh SW 8.0 mph12.9 kmh 29.58 in1001.7 mb 0.01 in0.3 mm 0.00 in/hr0.0 mm/hr 0.10 in2.5 mm
04:25 AM 45.4°F7.4°C 41.8°F5.4°C 87% 4.0 mph SSW6.4 kmh SSW 7.0 mph11.3 kmh 29.58 in1001.7 mb 0.01 in0.3 mm 0.00 in/hr0.0 mm/hr 0.10 in2.5 mm
04:10 AM 45.4°F7.4°C 42.1°F5.6°C 88% 4.0 mph SSW6.4 kmh SSW 4.0 mph6.4 kmh 29.58 in1001.7 mb 0.01 in0.3 mm 0.12 in/hr3.0 mm/hr 0.10 in2.5 mm
04:05 AM 45.3°F7.4°C 42.0°F5.6°C 88% 2.0 mph SW3.2 kmh SW 7.0 mph11.3 kmh 29.58 in1001.7 mb 0.00 in0.0 mm 0.00 in/hr0.0 mm/hr 0.09 in2.3 mm
03:50 AM 45.2°F7.3°C 42.2°F5.7°C 89% 3.0 mph SSW4.8 kmh SSW 6.0 mph9.7 kmh 29.57 in1001.4 mb 0.00 in0.0 mm 0.00 in/hr0.0 mm/hr 0.09 in2.3 mm
03:45 AM 45.2°F7.3°C 42.2°F5.7°C 89% 5.0 mph SW8.0 kmh SW 6.0 mph9.7 kmh 29.57 in1001.4 mb 0.00 in0.0 mm 0.00 in/hr0.0 mm/hr 0.09 in2.3 mm
03:30 AM 45.6°F7.6°C 42.6°F5.9°C 89% 3.0 mph SSW4.8 kmh SSW 4.0 mph6.4 kmh 29.56 in1001.0 mb 0.00 in0.0 mm 0.00 in/hr0.0 mm/hr 0.09 in2.3 mm
03:24 AM 45.8°F7.7°C 42.8°F6.0°C 89% Calm Calm 3.0 mph4.8 kmh 29.55 in1000.7 mb 0.00 in0.0 mm 0.00 in/hr0.0 mm/hr 0.09 in2.3 mm
03:10 AM 46.4°F8.0°C 43.3°F6.3°C 89% 2.0 mph SW3.2 kmh SW 5.0 mph8.0 kmh 29.55 in1000.7 mb 0.00 in0.0 mm 0.00 in/hr0.0 mm/hr 0.09 in2.3 mm
03:05 AM 46.5°F8.1°C 43.7°F6.5°C 90% 2.0 mph SSW3.2 kmh SSW 5.0 mph8.0 kmh 29.54 in1000.3 mb 0.00 in0.0 mm 0.00 in/hr0.0 mm/hr 0.09 in2.3 mm
02:50 AM 46.6°F8.1°C 43.5°F6.4°C 89% 5.0 mph SW8.0 kmh SW 6.0 mph9.7 kmh 29.54 in1000.3 mb 0.00 in0.0 mm 0.00 in/hr0.0 mm/hr 0.09 in2.3 mm
02:45 AM 46.6°F8.1°C 43.2°F6.2°C 88% 2.0 mph SW3.2 kmh SW 6.0 mph9.7 kmh 29.54 in1000.3 mb 0.00 in0.0 mm 0.00 in/hr0.0 mm/hr 0.09 in2.3 mm
02:29 AM 46.7°F8.2°C 43.3°F6.3°C 88% 3.0 mph SW4.8 kmh SW 6.0 mph9.7 kmh 29.52 in999.7 mb 0.00 in0.0 mm 0.00 in/hr0.0 mm/hr 0.09 in2.3 mm
02:25 AM 46.7°F8.2°C 43.3°F6.3°C 88% 3.0 mph SW4.8 kmh SW 6.0 mph9.7 kmh 29.52 in999.7 mb 0.00 in0.0 mm 0.00 in/hr0.0 mm/hr 0.09 in2.3 mm
02:10 AM 46.5°F8.1°C 43.1°F6.2°C 88% 8.0 mph WSW12.9 kmh WSW 9.0 mph14.5 kmh 29.51 in999.3 mb 0.02 in0.5 mm 0.00 in/hr0.0 mm/hr 0.09 in2.3 mm
02:05 AM 46.4°F8.0°C 42.8°F6.0°C 87% 5.0 mph W8.0 kmh W 9.0 mph14.5 kmh 29.51 in999.3 mb 0.02 in0.5 mm 0.00 in/hr0.0 mm/hr 0.09 in2.3 mm
01:50 AM 46.3°F7.9°C 42.7°F5.9°C 87% 5.0 mph SW8.0 kmh SW 11.0 mph17.7 kmh 29.50 in999.0 mb 0.04 in1.0 mm 0.00 in/hr0.0 mm/hr 0.09 in2.3 mm
01:45 AM 46.4°F8.0°C 42.8°F6.0°C 87% 4.0 mph SW6.4 kmh SW 8.0 mph12.9 kmh 29.50 in999.0 mb 0.04 in1.0 mm 0.00 in/hr0.0 mm/hr 0.09 in2.3 mm
01:30 AM 46.6°F8.1°C 43.5°F6.4°C 89% 3.0 mph W4.8 kmh W 4.0 mph6.4 kmh 29.49 in998.6 mb 0.08 in2.0 mm 0.00 in/hr0.0 mm/hr 0.09 in2.3 mm
01:25 AM 46.6°F8.1°C 43.8°F6.6°C 90% 3.0 mph W4.8 kmh W 9.0 mph14.5 kmh 29.48 in998.3 mb 0.09 in2.3 mm 0.04 in/hr1.0 mm/hr 0.09 in2.3 mm
01:10 AM 46.8°F8.2°C 44.0°F6.7°C 90% 1.0 mph SW1.6 kmh SW 1.0 mph1.6 kmh 29.47 in998.0 mb 0.08 in2.0 mm 0.12 in/hr3.0 mm/hr 0.08 in2.0 mm
01:05 AM 46.9°F8.3°C 44.1°F6.7°C 90% 3.0 mph W4.8 kmh W 9.0 mph14.5 kmh 29.47 in998.0 mb 0.07 in1.8 mm 0.00 in/hr0.0 mm/hr 0.07 in1.8 mm
12:50 AM 47.4°F8.6°C 44.0°F6.7°C 88% 4.0 mph WSW6.4 kmh WSW 8.0 mph12.9 kmh 29.46 in997.6 mb 0.07 in1.8 mm 0.12 in/hr3.0 mm/hr 0.07 in1.8 mm
12:45 AM 47.5°F8.6°C 43.8°F6.6°C 87% 5.0 mph WSW8.0 kmh WSW 8.0 mph12.9 kmh 29.46 in997.6 mb 0.06 in1.5 mm 0.20 in/hr5.1 mm/hr 0.06 in1.5 mm
12:30 AM 48.6°F9.2°C 44.0°F6.7°C 84% 10.0 mph SW16.1 kmh SW 11.0 mph17.7 kmh 29.45 in997.3 mb 0.01 in0.3 mm 0.12 in/hr3.0 mm/hr 0.01 in0.3 mm
12:25 AM 48.8°F9.3°C 43.9°F6.6°C 83% 5.0 mph SW8.0 kmh SW 10.0 mph16.1 kmh 29.44 in997.0 mb 0.00 in0.0 mm 0.00 in/hr0.0 mm/hr 0.00 in0.0 mm
12:10 AM 48.8°F9.3°C 43.6°F6.4°C 82% 10.0 mph SW16.1 kmh SW 13.0 mph20.9 kmh 29.43 in996.6 mb 0.00 in0.0 mm 0.00 in/hr0.0 mm/hr 0.00 in0.0 mm
12:05 AM 48.9°F9.4°C 43.7°F6.5°C 82% 6.0 mph WSW9.7 kmh WSW 13.0 mph20.9 kmh 29.43 in996.6 mb 0.00 in0.0 mm 0.00 in/hr0.0 mm/hr 0.00 in0.0 mm